Loami, Illinois
Current Conditions -  °F | °C
As of 5:52 AM on Saturday 01 Nov 2014 (Local Time) from KSPI Reporting Station
Clear Clear  
Wind Chill: 21°   Ceiling: Unl
Heat Index: 30°   Visibility: 10mi
Dew Point: 20°   Wind: 10mph
Humidity: 66%   Direction: 340°NNW
Pressure: 30.42"   Gusts: NA
Location:  39.68°N, 89.85°W
Report Text: KSPI 011052Z 34009KT 10SM CLR M01/M07 A3042 RMK AO2 SLP308 T10111067
Loading
Personal Weather Stations






























Interactive Weather Map
Tropical Storm Tracking
New forecast layout! Learn more

10-Day Weather Forecast

Advertisements
Track Severe Weather on mobile